Time;durP1;ratioP1;P1;durP2;ratioP2;P2;SDS_P1;SDS_P2;PMS_P1;PMS_P2;Temp;Humidity;BMP_temperature;BMP_pressure;BME280_temperature;BME280_humidity;BME280_pressure;Samples;Min_cycle;Max_cycle;Signal;HPM_P1;HPM_P2
2023/11/06 00:00:27;;;;;;;;;1.00;1.00;;;;;-143.90;91.42;73621.97;4949997;28;102521;-83
2023/11/06 00:02:53;;;;;;;;;1.00;1.00;;;;;-143.90;91.67;73626.09;4964239;28;102458;-81
2023/11/06 00:05:21;;;;;;;;;0.00;0.00;;;;;-143.90;91.93;73626.09;4955201;28;103981;-82
2023/11/06 00:07:48;;;;;;;;;1.00;0.00;;;;;-143.90;91.60;73628.16;4951014;28;102529;-83
2023/11/06 00:10:15;;;;;;;;;1.25;0.00;;;;;-143.90;91.84;73636.44;4959001;28;102453;-82
2023/11/06 00:12:42;;;;;;;;;1.00;1.00;;;;;-143.90;92.09;73640.56;4964924;27;103022;-83
2023/11/06 00:15:10;;;;;;;;;1.00;0.00;;;;;-143.90;92.26;73640.56;4957736;28;104154;-83
2023/11/06 00:17:37;;;;;;;;;0.75;0.75;;;;;-143.90;92.30;73650.91;4962284;28;102193;-82
2023/11/06 00:20:04;;;;;;;;;1.75;0.75;;;;;-143.90;92.59;73655.03;4957066;27;102554;-83
2023/11/06 00:22:31;;;;;;;;;0.75;0.75;;;;;-143.90;92.99;73657.09;4958074;28;102426;-82
2023/11/06 00:24:58;;;;;;;;;0.00;0.00;;;;;-143.90;93.48;73669.50;4951434;28;103990;-82
2023/11/06 00:27:25;;;;;;;;;1.75;1.00;;;;;-143.90;93.06;73661.25;4963531;27;102479;-82
2023/11/06 00:29:52;;;;;;;;;0.00;0.00;;;;;-143.90;93.68;73671.56;4947931;28;103101;-82
2023/11/06 00:32:18;;;;;;;;;1.00;0.00;;;;;-143.90;93.59;73667.44;4954316;27;102114;-80
2023/11/06 00:34:45;;;;;;;;;0.00;0.00;;;;;-143.90;93.38;73675.69;4960376;28;111017;-82
2023/11/06 00:37:12;;;;;;;;;1.00;0.00;;;;;-143.90;93.26;73673.63;4964998;27;102493;-81
2023/11/06 00:39:42;;;;;;;;;1.00;0.00;;;;;-143.90;93.60;73671.56;4961095;27;102119;-83
2023/11/06 00:42:09;;;;;;;;;0.50;0.25;;;;;-143.90;93.48;73671.56;4963061;28;102127;-82
2023/11/06 00:44:36;;;;;;;;;0.00;0.00;;;;;-143.90;92.57;73683.97;4952619;28;103953;-83
2023/11/06 00:47:02;;;;;;;;;2.00;1.00;;;;;-143.90;92.88;73679.84;4969580;28;102533;-81
2023/11/06 00:49:29;;;;;;;;;0.25;0.00;;;;;-143.90;92.17;73686.03;4962295;28;102275;-82
2023/11/06 00:51:56;;;;;;;;;0.50;0.00;;;;;-143.90;92.50;73675.69;4966075;27;102307;-82
2023/11/06 00:54:23;;;;;;;;;1.00;1.00;;;;;-143.90;91.85;73675.69;4986095;27;104208;-82
2023/11/06 00:56:50;;;;;;;;;0.00;0.00;;;;;-143.90;92.06;73681.91;4975396;28;102292;-77
2023/11/06 00:59:16;;;;;;;;;0.00;0.00;;;;;-143.90;91.65;73688.09;4976438;28;102833;-81
2023/11/06 01:01:43;;;;;;;;;0.25;0.25;;;;;-143.90;91.51;73683.97;4965313;27;102187;-83
2023/11/06 01:04:10;;;;;;;;;1.00;1.00;;;;;-143.90;92.12;73686.03;4977598;27;104555;-82
2023/11/06 01:06:37;;;;;;;;;1.00;0.00;;;;;-143.90;92.71;73692.25;4985534;28;101989;-84
2023/11/06 01:09:04;;;;;;;;;0.50;0.50;;;;;-143.90;92.59;73692.25;4976706;28;102831;-81
2023/11/06 01:11:30;;;;;;;;;1.00;0.75;;;;;-143.90;92.36;73698.44;4977872;28;102669;-82
2023/11/06 01:13:57;;;;;;;;;0.00;0.00;;;;;-143.90;92.67;73690.16;4979515;27;102981;-83
2023/11/06 01:16:24;;;;;;;;;0.00;0.00;;;;;-143.90;92.32;73692.25;4972653;28;104666;-83
2023/11/06 01:18:51;;;;;;;;;0.00;0.00;;;;;-143.90;92.24;73700.50;4969900;27;102147;-83
2023/11/06 01:21:18;;;;;;;;;0.00;0.00;;;;;-143.90;92.69;73708.78;4980048;28;102167;-82
2023/11/06 01:23:44;;;;;;;;;1.50;1.00;;;;;-143.90;93.65;73704.63;4990744;27;104062;-82
2023/11/06 01:26:11;;;;;;;;;0.00;0.00;;;;;-143.90;93.45;73712.91;4969442;28;102140;-83
2023/11/06 01:28:38;;;;;;;;;0.50;0.50;;;;;-143.90;94.23;73725.31;4972352;27;102472;-82
2023/11/06 01:31:04;;;;;;;;;1.00;0.25;;;;;-143.90;94.14;73725.31;4976456;28;102040;-84
2023/11/06 01:33:31;;;;;;;;;1.00;0.00;;;;;-143.90;94.62;73735.63;4977201;27;104785;-82
2023/11/06 01:35:58;;;;;;;;;1.00;0.00;;;;;-143.90;93.93;73737.69;4984867;27;103811;-84
2023/11/06 01:38:25;;;;;;;;;0.00;0.00;;;;;-143.90;93.80;73741.84;4982621;28;102915;-83
2023/11/06 01:40:52;;;;;;;;;0.00;0.00;;;;;-143.90;94.04;73750.09;4979326;27;103015;-85
2023/11/06 01:43:23;;;;;;;;;0.00;0.00;;;;;-143.90;93.46;73750.09;4980032;27;103973;-85
2023/11/06 01:45:50;;;;;;;;;0.00;0.00;;;;;-143.90;93.04;73752.16;4980812;27;102405;-81
2023/11/06 01:48:18;;;;;;;;;0.00;0.00;;;;;-143.90;93.06;73766.63;4989731;27;102022;-83
2023/11/06 01:50:46;;;;;;;;;0.00;0.00;;;;;-143.90;93.22;73772.84;4965093;27;102787;-83
2023/11/06 01:53:14;;;;;;;;;0.00;0.00;;;;;-143.90;92.54;73783.16;4968018;28;104045;-84
2023/11/06 01:55:45;;;;;;;;;0.00;0.00;;;;;-143.90;92.38;73779.03;4965174;28;103540;-84
2023/11/06 01:58:13;;;;;;;;;0.00;0.00;;;;;-143.90;91.46;73787.31;4978030;27;103050;-85
2023/11/06 02:00:40;;;;;;;;;0.00;0.00;;;;;-143.90;91.77;73783.16;4974719;28;106084;-83
2023/11/06 02:03:08;;;;;;;;;0.00;0.00;;;;;-143.90;91.14;73791.44;4981322;28;104138;-84
2023/11/06 02:05:38;;;;;;;;;1.00;0.25;;;;;-143.90;90.92;73810.03;4974068;27;102262;-83
2023/11/06 02:08:06;;;;;;;;;0.00;0.00;;;;;-143.90;90.96;73807.97;4978594;27;105491;-83
2023/11/06 02:10:33;;;;;;;;;0.00;0.00;;;;;-143.90;90.36;73816.25;4981529;27;102319;-84
2023/11/06 02:12:59;;;;;;;;;0.00;0.00;;;;;-143.90;90.12;73818.31;4976310;28;104269;-85
2023/11/06 02:15:27;;;;;;;;;0.00;0.00;;;;;-143.90;89.42;73822.44;4985495;27;102375;-86
2023/11/06 02:17:55;;;;;;;;;0.00;0.00;;;;;-143.90;89.16;73828.63;4976592;28;102295;-82
2023/11/06 02:20:22;;;;;;;;;0.00;0.00;;;;;-143.90;90.03;73828.63;4967811;27;102066;-81
2023/11/06 02:22:52;;;;;;;;;0.00;0.00;;;;;-143.90;89.77;73841.03;4976547;27;104298;-83
2023/11/06 02:25:19;;;;;;;;;0.25;0.25;;;;;-143.90;90.07;73857.56;4972543;27;102317;-79
2023/11/06 02:27:46;;;;;;;;;0.00;0.00;;;;;-143.90;89.69;73861.69;4982880;27;102004;-85
2023/11/06 02:30:13;;;;;;;;;0.00;0.00;;;;;-143.90;89.98;73869.97;4972986;28;102186;-84
2023/11/06 02:32:40;;;;;;;;;0.00;0.00;;;;;-143.90;90.28;73867.91;4979504;28;104136;-84
2023/11/06 02:35:07;;;;;;;;;0.00;0.00;;;;;-143.90;90.59;73878.25;4969935;27;102396;-84
2023/11/06 02:37:35;;;;;;;;;0.00;0.00;;;;;-143.90;90.93;73880.31;4963411;28;103328;-81
2023/11/06 02:40:02;;;;;;;;;0.00;0.00;;;;;-143.90;90.24;73878.25;4966367;27;102430;-82
2023/11/06 02:42:29;;;;;;;;;0.00;0.00;;;;;-143.90;90.79;73892.69;4975518;27;104239;-83
2023/11/06 02:44:55;;;;;;;;;1.00;0.00;;;;;-143.90;90.83;73896.84;4980657;27;102399;-81
2023/11/06 02:47:22;;;;;;;;;0.00;0.00;;;;;-143.90;90.90;73909.25;4975546;28;102270;-83
2023/11/06 02:49:49;;;;;;;;;0.00;0.00;;;;;-143.90;90.25;73907.16;4981634;27;102087;-82
2023/11/06 02:52:18;;;;;;;;;0.00;0.00;;;;;-143.90;90.97;73915.44;4973313;28;109015;-82
2023/11/06 02:54:45;;;;;;;;;0.00;0.00;;;;;-143.90;90.41;73917.50;4974325;27;102414;-83
2023/11/06 02:57:12;;;;;;;;;0.00;0.00;;;;;-143.90;89.93;73923.72;4974459;27;102339;-82
2023/11/06 02:59:38;;;;;;;;;0.00;0.00;;;;;-143.90;90.47;73927.84;4972382;28;102073;-82
2023/11/06 03:02:05;;;;;;;;;0.00;0.00;;;;;-143.90;90.40;73936.09;4974246;28;104157;-81
2023/11/06 03:04:32;;;;;;;;;0.00;0.00;;;;;-143.90;89.59;73936.09;4967161;27;102357;-82
2023/11/06 03:06:59;;;;;;;;;0.00;0.00;;;;;-143.90;89.66;73946.44;4982067;28;102397;-79
2023/11/06 03:09:25;;;;;;;;;1.00;0.00;;;;;-143.90;89.14;73965.03;4973894;27;102376;-81
2023/11/06 03:11:52;;;;;;;;;0.25;0.00;;;;;-143.90;89.28;73962.97;4971036;28;104134;-80
2023/11/06 03:14:19;;;;;;;;;0.00;0.00;;;;;-143.90;88.93;73973.31;4982103;28;102212;-83
2023/11/06 03:16:46;;;;;;;;;1.00;0.00;;;;;-143.90;88.85;73973.31;4971976;28;103850;-83
2023/11/06 03:19:12;;;;;;;;;0.00;0.00;;;;;-143.90;88.15;73965.03;4972564;28;102350;-82
2023/11/06 03:21:39;;;;;;;;;0.00;0.00;;;;;-143.90;88.01;73975.38;4974435;28;104111;-81
2023/11/06 03:24:07;;;;;;;;;0.00;0.00;;;;;-143.90;87.98;73979.50;4985723;28;102229;-82
2023/11/06 03:26:34;;;;;;;;;1.00;0.00;;;;;-143.90;88.32;73981.56;4978705;28;102246;-83
2023/11/06 03:29:02;;;;;;;;;0.00;0.00;;;;;-143.90;88.27;73993.97;4968278;27;102235;-83
2023/11/06 03:31:29;;;;;;;;;1.00;0.00;;;;;-143.90;87.79;73998.13;4976493;28;104023;-83
2023/11/06 03:33:56;;;;;;;;;0.00;0.00;;;;;-143.90;86.93;74010.50;4969592;27;102360;-84
2023/11/06 03:36:23;;;;;;;;;0.00;0.00;;;;;-143.90;87.25;74018.78;4971554;28;103423;-85
2023/11/06 03:38:49;;;;;;;;;0.75;0.00;;;;;-143.90;85.46;74012.56;4979112;28;102384;-83
2023/11/06 03:41:16;;;;;;;;;0.00;0.00;;;;;-143.90;85.65;74022.91;4969621;27;110701;-84
2023/11/06 03:43:43;;;;;;;;;0.00;0.00;;;;;-143.90;85.91;74033.25;4974731;27;102274;-83
2023/11/06 03:46:11;;;;;;;;;0.50;0.00;;;;;-143.90;85.79;74035.31;4974923;27;102113;-81
2023/11/06 03:48:37;;;;;;;;;1.00;0.00;;;;;-143.90;85.68;74051.84;4980326;27;102290;-84
2023/11/06 03:51:04;;;;;;;;;1.25;1.25;;;;;-143.90;85.11;74051.84;4966805;27;104059;-81
2023/11/06 03:53:31;;;;;;;;;1.00;1.00;;;;;-143.90;85.42;74049.78;4973032;27;102445;-83
2023/11/06 03:55:57;;;;;;;;;1.00;0.25;;;;;-143.90;84.67;74055.97;4971054;28;102451;-83
2023/11/06 03:58:24;;;;;;;;;2.00;1.00;;;;;-143.90;84.07;74058.06;4978586;27;102080;-79
2023/11/06 04:00:51;;;;;;;;;0.75;0.75;;;;;-143.90;84.40;74060.13;4975360;28;104048;-80
2023/11/06 04:03:18;;;;;;;;;1.50;1.00;;;;;-143.90;83.51;74070.44;4978041;28;102178;-81
2023/11/06 04:05:44;;;;;;;;;3.00;1.75;;;;;-143.90;83.16;74074.59;4966254;28;104540;-81
2023/11/06 04:08:11;;;;;;;;;1.25;1.00;;;;;-143.90;82.82;74076.66;4978683;27;103197;-81
2023/11/06 04:10:38;;;;;;;;;1.00;1.00;;;;;-143.90;83.31;74078.72;4960880;28;103979;-82
2023/11/06 04:13:05;;;;;;;;;1.00;1.00;;;;;-143.90;83.44;74086.97;4967127;28;102485;-84
2023/11/06 04:15:32;;;;;;;;;0.50;0.50;;;;;-143.90;83.31;74093.19;4964912;28;102017;-82
2023/11/06 04:17:59;;;;;;;;;1.00;0.00;;;;;-143.90;83.76;74113.84;4967433;28;103035;-78
2023/11/06 04:20:25;;;;;;;;;0.00;0.00;;;;;-143.90;84.00;74118.00;4965747;27;103972;-78
2023/11/06 04:22:52;;;;;;;;;0.00;0.00;;;;;-143.90;84.49;74134.53;4974373;28;103538;-77
2023/11/06 04:25:19;;;;;;;;;0.00;0.00;;;;;-143.90;84.88;74142.78;4975431;28;102197;-79
2023/11/06 04:27:45;;;;;;;;;0.50;0.50;;;;;-143.90;84.54;74155.19;4971434;28;102573;-78
2023/11/06 04:30:12;;;;;;;;;0.75;0.50;;;;;-143.90;85.63;74169.66;4975541;27;104006;-77
2023/11/06 04:32:39;;;;;;;;;1.00;0.00;;;;;-143.90;85.66;74182.06;4971216;27;102342;-79
2023/11/06 04:35:06;;;;;;;;;1.00;1.00;;;;;-143.90;85.72;74188.25;4976939;27;102079;-80
2023/11/06 04:37:34;;;;;;;;;2.00;0.25;;;;;-143.90;85.81;74198.59;4966752;27;102007;-80
2023/11/06 04:40:00;;;;;;;;;2.75;1.00;;;;;-143.90;86.07;74208.94;4984813;27;104024;-83
2023/11/06 04:42:27;;;;;;;;;0.00;0.00;;;;;-143.90;86.37;74217.19;4985820;27;102256;-81
2023/11/06 04:44:54;;;;;;;;;1.25;1.00;;;;;-143.90;86.44;74223.41;4984291;27;102358;-79
2023/11/06 04:47:20;;;;;;;;;1.00;1.00;;;;;-143.90;86.78;74237.88;4987588;27;101994;-79
2023/11/06 04:49:47;;;;;;;;;2.00;1.00;;;;;-143.90;86.85;74254.41;4975131;27;104045;-80
2023/11/06 04:52:13;;;;;;;;;0.00;0.00;;;;;-143.90;87.10;74258.53;4978950;28;103394;-79
2023/11/06 04:54:41;;;;;;;;;1.00;1.00;;;;;-143.90;87.87;74260.59;4985567;27;102505;-81
2023/11/06 04:57:09;;;;;;;;;0.25;0.25;;;;;-143.90;87.54;74270.94;4984416;27;102294;-80
2023/11/06 04:59:37;;;;;;;;;1.00;1.00;;;;;-143.90;87.94;74287.47;4991540;28;103972;-80
2023/11/06 05:02:04;;;;;;;;;1.00;1.00;;;;;-143.90;88.67;74295.75;4980686;27;103630;-80
2023/11/06 05:04:31;;;;;;;;;2.00;1.00;;;;;-143.90;88.64;74297.81;4983744;27;102581;-80
2023/11/06 05:06:58;;;;;;;;;1.75;1.00;;;;;-143.90;88.50;74299.88;4991865;27;102019;-80
2023/11/06 05:09:25;;;;;;;;;1.00;0.00;;;;;-143.90;89.18;74316.41;4973994;27;103976;-81
2023/11/06 05:11:54;;;;;;;;;2.50;2.00;;;;;-143.90;89.47;74326.75;4981528;27;102937;-79
2023/11/06 05:14:20;;;;;;;;;0.50;0.25;;;;;-143.90;90.03;74328.81;4978035;28;102149;-80
2023/11/06 05:16:47;;;;;;;;;1.00;1.00;;;;;-143.90;90.43;74341.22;4968317;27;102375;-81
2023/11/06 05:19:14;;;;;;;;;1.25;1.00;;;;;-143.90;90.60;74351.53;4979879;27;104103;-81
2023/11/06 05:21:40;;;;;;;;;1.00;1.00;;;;;-143.90;91.30;74359.81;4977757;27;102413;-79
2023/11/06 05:24:07;;;;;;;;;2.75;2.25;;;;;-143.90;91.87;74370.16;4973649;27;102363;-78
2023/11/06 05:26:34;;;;;;;;;3.00;2.25;;;;;-143.90;92.40;74374.28;4978479;27;102569;-79
2023/11/06 05:29:00;;;;;;;;;3.25;2.00;;;;;-143.90;92.54;74382.56;4974979;27;104071;-80
2023/11/06 05:31:29;;;;;;;;;2.00;1.00;;;;;-143.90;92.63;74390.81;4979839;28;102552;-81
2023/11/06 05:33:58;;;;;;;;;1.75;1.00;;;;;-143.90;93.54;74399.09;4971712;27;102298;-80
2023/11/06 05:36:25;;;;;;;;;2.00;2.00;;;;;-143.90;92.91;74409.41;4978247;28;102308;-79
2023/11/06 05:38:51;;;;;;;;;2.00;2.00;;;;;-143.90;93.01;74419.75;4980431;28;104122;-76
2023/11/06 05:41:20;;;;;;;;;1.50;1.00;;;;;-143.90;93.11;74425.97;4978489;27;102195;-82
2023/11/06 05:43:49;;;;;;;;;1.00;0.00;;;;;-143.90;93.05;74430.09;4975422;27;102360;-80
2023/11/06 05:46:16;;;;;;;;;2.00;1.00;;;;;-143.90;92.96;74438.38;4971718;28;102629;-80
2023/11/06 05:48:42;;;;;;;;;2.00;0.75;;;;;-143.90;93.65;74444.56;4970943;28;104277;-77
2023/11/06 05:51:09;;;;;;;;;2.00;2.00;;;;;-143.90;93.72;74452.84;4984198;27;103027;-80
2023/11/06 05:53:36;;;;;;;;;1.50;1.00;;;;;-143.90;93.43;74448.69;4994376;27;102292;-80
2023/11/06 05:56:03;;;;;;;;;2.00;1.75;;;;;-143.90;93.23;74452.84;4986899;27;102045;-79
2023/11/06 05:58:30;;;;;;;;;1.00;1.00;;;;;-143.90;93.68;74461.09;4967655;27;104088;-81
2023/11/06 06:00:57;;;;;;;;;1.00;1.00;;;;;-143.90;93.76;74475.56;4982329;27;102207;-81
2023/11/06 06:03:23;;;;;;;;;2.00;1.75;;;;;-143.90;93.89;74473.50;4979665;28;102278;-82
2023/11/06 06:05:50;;;;;;;;;2.00;2.00;;;;;-143.90;94.04;74477.63;4979195;28;102018;-84
2023/11/06 06:08:19;;;;;;;;;1.00;1.00;;;;;-143.90;94.85;74498.31;4980557;28;103950;-81
2023/11/06 06:10:46;;;;;;;;;1.25;1.25;;;;;-143.90;93.98;74500.38;4979378;27;102431;-81
2023/11/06 06:13:13;;;;;;;;;2.50;2.00;;;;;-143.90;94.85;74506.56;4978879;28;102252;-77
2023/11/06 06:15:40;;;;;;;;;1.00;1.00;;;;;-143.90;94.47;74508.63;4989751;27;102276;-79
2023/11/06 06:18:06;;;;;;;;;2.00;1.00;;;;;-143.90;94.61;74508.63;4983179;27;104136;-85
2023/11/06 06:20:33;;;;;;;;;1.25;1.25;;;;;-143.90;94.41;74508.63;4980263;27;102397;-84
2023/11/06 06:23:00;;;;;;;;;1.75;1.00;;;;;-143.90;94.61;74512.78;4988735;27;102352;-84
2023/11/06 06:25:26;;;;;;;;;1.00;1.00;;;;;-143.90;94.21;74510.72;4967882;28;102672;-82
2023/11/06 06:27:53;;;;;;;;;1.25;1.00;;;;;-143.90;94.21;74506.56;4982476;28;104195;-82
2023/11/06 06:30:20;;;;;;;;;1.00;1.00;;;;;-143.90;94.07;74500.38;4980834;28;102079;-84
2023/11/06 06:32:46;;;;;;;;;2.00;2.00;;;;;-143.90;93.59;74494.16;4982541;27;105604;-83
2023/11/06 06:35:13;;;;;;;;;3.00;2.75;;;;;-143.90;93.36;74483.84;4987910;27;102538;-81
2023/11/06 06:37:40;;;;;;;;;2.00;2.00;;;;;-143.90;92.26;74477.63;4977102;28;103969;-80
2023/11/06 06:40:09;;;;;;;;;2.00;2.00;;;;;-143.90;92.05;74473.50;4989545;28;102418;-84
2023/11/06 06:42:36;;;;;;;;;2.75;2.00;;;;;-143.90;91.30;74469.38;4978580;28;101979;-83
2023/11/06 06:45:04;;;;;;;;;1.75;1.00;;;;;-143.90;91.66;74465.22;4979149;27;102448;-82
2023/11/06 06:47:31;;;;;;;;;2.25;1.00;;;;;-143.90;91.12;74463.16;4984808;27;105451;-83
2023/11/06 06:49:58;;;;;;;;;1.25;1.25;;;;;-143.90;90.67;74461.09;4977597;28;102208;-81
2023/11/06 06:52:25;;;;;;;;;1.25;1.25;;;;;-143.90;89.75;74456.97;4977235;27;102163;-84
2023/11/06 06:54:51;;;;;;;;;1.00;1.00;;;;;-143.90;88.48;74452.84;4980469;28;102090;-80
2023/11/06 06:57:18;;;;;;;;;1.00;1.00;;;;;-143.90;89.54;74444.56;4987183;27;108764;-83
2023/11/06 06:59:45;;;;;;;;;2.00;1.00;;;;;-143.90;88.95;74436.28;4987714;28;102374;-82
2023/11/06 07:02:11;;;;;;;;;2.75;1.00;;;;;-143.90;89.04;74421.81;4990214;27;102103;-83
2023/11/06 07:04:40;;;;;;;;;1.50;1.25;;;;;-143.90;88.36;74428.03;4985817;28;102221;-83
2023/11/06 07:07:07;;;;;;;;;1.00;1.00;;;;;-143.90;87.89;74415.63;4994407;28;103690;-81
2023/11/06 07:09:34;;;;;;;;;1.50;1.00;;;;;-143.90;86.85;74413.56;4985033;28;102599;-83
2023/11/06 07:12:02;;;;;;;;;0.00;0.00;;;;;-143.90;86.21;74405.28;4979652;28;102907;-83
2023/11/06 07:14:30;;;;;;;;;1.00;1.00;;;;;-143.90;85.89;74401.16;4994244;27;102897;-83
2023/11/06 07:17:03;;;;;;;;;1.00;1.00;;;;;-143.90;86.41;74390.81;4980120;28;103983;-81
2023/11/06 07:19:32;;;;;;;;;1.00;1.00;;;;;-143.90;85.49;74386.69;4984209;27;102235;-81
2023/11/06 07:21:59;;;;;;;;;2.00;1.00;;;;;-143.90;84.82;74380.47;4992088;27;102136;-83
2023/11/06 07:24:27;;;;;;;;;1.00;1.00;;;;;-143.90;85.39;74370.16;4987938;27;103184;-85
2023/11/06 07:26:55;;;;;;;;;1.50;1.00;;;;;-143.90;84.65;74366.00;4973242;27;103716;-82
2023/11/06 07:29:23;;;;;;;;;1.50;1.50;;;;;-143.90;84.10;74366.00;4993304;27;102293;-82
2023/11/06 07:31:53;;;;;;;;;0.75;0.75;;;;;-143.90;84.63;74363.94;4980818;28;102444;-82
2023/11/06 07:34:20;;;;;;;;;2.00;1.50;;;;;-143.90;84.37;74361.88;4982894;27;102484;-84
2023/11/06 07:36:49;;;;;;;;;1.00;1.00;;;;;-143.90;84.07;74355.69;4974235;28;108945;-82
2023/11/06 07:39:17;;;;;;;;;2.00;1.00;;;;;-143.90;84.25;74353.63;4975507;28;102251;-83
2023/11/06 07:41:46;;;;;;;;;1.00;1.00;;;;;-143.90;84.30;74345.34;4985106;27;102946;-82
2023/11/06 07:44:13;;;;;;;;;2.25;1.75;;;;;-143.90;83.86;74353.63;4978539;27;102138;-81
2023/11/06 07:46:40;;;;;;;;;1.00;1.00;;;;;-143.90;84.21;74345.34;4968056;28;104185;-83
2023/11/06 07:49:07;;;;;;;;;2.00;2.00;;;;;-143.90;83.67;74349.47;4980076;28;102393;-81
2023/11/06 07:51:34;;;;;;;;;1.00;1.00;;;;;-143.90;83.74;74347.41;4978994;27;102900;-83
2023/11/06 07:54:00;;;;;;;;;1.50;1.50;;;;;-143.90;83.24;74349.47;4977261;28;102195;-83
2023/11/06 07:56:27;;;;;;;;;2.50;2.00;;;;;-143.90;83.56;74343.28;4988400;27;105677;-81
2023/11/06 07:58:55;;;;;;;;;5.50;4.00;;;;;-143.90;83.87;74349.47;4986796;27;101971;-83
2023/11/06 08:01:22;;;;;;;;;3.25;3.00;;;;;-143.90;83.66;74353.63;4969335;28;102341;-76
2023/11/06 08:03:49;;;;;;;;;9.50;5.25;;;;;-143.90;83.80;74351.53;4987696;27;102426;-82
2023/11/06 08:06:16;;;;;;;;;10.75;9.50;;;;;-143.90;84.37;74357.75;4978816;28;104251;-80
2023/11/06 08:08:43;;;;;;;;;18.00;15.25;;;;;-143.90;83.25;74351.53;4970710;28;103500;-79
2023/11/06 08:11:10;;;;;;;;;9.00;8.00;;;;;-143.90;82.86;74349.47;4969728;28;102842;-84
2023/11/06 08:13:37;;;;;;;;;9.00;8.00;;;;;-143.90;82.50;74353.63;4985655;27;102105;-80
2023/11/06 08:16:04;;;;;;;;;9.00;8.50;;;;;-143.90;82.52;74341.22;4974856;28;103920;-78
2023/11/06 08:18:33;;;;;;;;;9.50;6.00;;;;;-143.90;82.43;74351.53;4969477;28;107500;-82
2023/11/06 08:21:01;;;;;;;;;5.25;4.00;;;;;-143.90;82.34;74366.00;4975892;28;102012;-82
2023/11/06 08:23:28;;;;;;;;;4.00;2.00;;;;;-143.90;84.04;74353.63;4985335;28;102318;-80
2023/11/06 08:25:55;;;;;;;;;6.75;4.00;;;;;-143.90;82.38;74345.34;4981245;27;103996;-80
2023/11/06 08:28:22;;;;;;;;;2.00;1.75;;;;;-143.90;82.34;74355.69;4983496;28;102237;-81
2023/11/06 08:30:50;;;;;;;;;1.50;1.00;;;;;-143.90;81.56;74341.22;4976662;28;103235;-83
2023/11/06 08:33:19;;;;;;;;;1.00;1.00;;;;;-143.90;82.38;74339.16;4980647;27;101970;-83
2023/11/06 08:35:46;;;;;;;;;1.75;1.00;;;;;-143.90;82.15;74341.22;4962935;28;103224;-82
2023/11/06 08:38:13;;;;;;;;;0.25;0.00;;;;;-143.90;82.00;74335.00;4995398;28;102988;-82
2023/11/06 08:40:40;;;;;;;;;2.00;1.00;;;;;-143.90;82.24;74332.94;4966729;28;102218;-84
2023/11/06 08:43:07;;;;;;;;;2.25;2.00;;;;;-143.90;81.17;74337.06;4976679;28;102628;-83
2023/11/06 08:45:34;;;;;;;;;2.00;1.00;;;;;-143.90;81.24;74320.53;4986692;28;104140;-83
2023/11/06 08:48:00;;;;;;;;;8.00;7.50;;;;;-143.90;80.24;74316.41;4984879;28;101896;-80
2023/11/06 08:50:29;;;;;;;;;2.00;2.00;;;;;-143.90;81.19;74326.75;4977644;27;105980;-82
2023/11/06 08:52:56;;;;;;;;;9.00;8.50;;;;;-143.90;79.67;74312.28;4990593;28;102180;-80
2023/11/06 08:55:24;;;;;;;;;7.25;4.50;;;;;-143.90;79.40;74297.81;4972347;28;102744;-84
2023/11/06 08:57:51;;;;;;;;;6.75;3.25;;;;;-143.90;78.84;74316.41;4996811;27;102080;-82
2023/11/06 09:00:18;;;;;;;;;1.75;1.50;;;;;-143.90;78.71;74322.59;4979708;27;102484;-81
2023/11/06 09:02:47;;;;;;;;;2.75;1.50;;;;;-143.90;77.79;74314.34;4975212;28;102444;-83
2023/11/06 09:05:16;;;;;;;;;3.75;3.00;;;;;-143.90;77.42;74322.59;4982823;28;104015;-83
2023/11/06 09:07:45;;;;;;;;;3.50;3.00;;;;;-143.90;77.30;74301.94;4967321;28;103484;-79
2023/11/06 09:10:13;;;;;;;;;3.50;3.00;;;;;-143.90;76.30;74291.59;4984240;28;102175;-81
2023/11/06 09:12:40;;;;;;;;;5.00;5.00;;;;;-143.90;74.89;74283.34;4972062;28;102075;-84
2023/11/06 09:15:07;;;;;;;;;3.00;1.25;;;;;-143.90;75.20;74283.34;4978717;28;104179;-83
2023/11/06 09:17:34;;;;;;;;;1.00;1.00;;;;;-143.90;73.65;74299.88;4984201;27;102397;-81
2023/11/06 09:20:01;;;;;;;;;2.25;2.00;;;;;-143.90;74.12;74293.66;4988472;27;102083;-82
2023/11/06 09:22:30;;;;;;;;;4.00;3.00;;;;;-143.90;73.95;74287.47;4980553;28;102258;-83
2023/11/06 09:24:56;;;;;;;;;1.50;1.00;;;;;-143.90;74.13;74293.66;4977057;28;103922;-84
2023/11/06 09:27:23;;;;;;;;;3.25;2.50;;;;;-143.90;73.27;74291.59;4987444;28;102229;-82
2023/11/06 09:29:50;;;;;;;;;3.00;2.00;;;;;-143.90;73.00;74277.13;4988608;27;102840;-81
2023/11/06 09:32:16;;;;;;;;;1.75;1.00;;;;;-143.90;73.72;74270.94;4983022;28;102088;-81
2023/11/06 09:34:43;;;;;;;;;3.00;2.50;;;;;-143.90;74.56;74260.59;4979924;27;103996;-83
2023/11/06 09:37:10;;;;;;;;;2.00;0.75;;;;;-143.90;75.09;74264.72;4980643;27;102351;-83
2023/11/06 09:39:41;;;;;;;;;1.00;1.00;;;;;-143.90;72.29;74268.88;4984706;27;101928;-82
2023/11/06 09:42:11;;;;;;;;;2.75;1.25;;;;;-143.90;72.95;74254.41;4985603;27;102449;-81
2023/11/06 09:44:38;;;;;;;;;3.75;3.50;;;;;-143.90;72.09;74258.53;4980528;27;104429;-81
2023/11/06 09:47:08;;;;;;;;;2.00;2.00;;;;;-143.90;71.28;74256.47;4985023;28;102754;-83
2023/11/06 09:49:48;;;;;;;;;4.00;4.00;;;;;-143.90;71.19;74233.72;4995424;27;103281;-86
2023/11/06 09:52:15;;;;;;;;;2.50;1.00;;;;;-143.90;72.58;74242.00;4982911;27;102272;-83
2023/11/06 09:54:44;;;;;;;;;2.00;2.00;;;;;-143.90;71.40;74266.81;4977876;27;104308;-83
2023/11/06 09:57:12;;;;;;;;;1.00;0.00;;;;;-143.90;70.86;74270.94;4979905;27;111440;-82
2023/11/06 09:59:40;;;;;;;;;3.00;2.50;;;;;-143.90;72.24;74242.00;4988556;27;102183;-83
2023/11/06 10:02:08;;;;;;;;;2.00;1.00;;;;;-143.90;69.92;74225.47;4989645;27;102272;-84
2023/11/06 10:04:36;;;;;;;;;2.25;2.00;;;;;-143.90;70.58;74200.66;4977297;27;104004;-85
2023/11/06 10:07:04;;;;;;;;;0.00;0.00;;;;;-143.90;69.59;74211.00;4978201;27;105953;-83
2023/11/06 10:09:31;;;;;;;;;0.75;0.75;;;;;-143.90;68.57;74202.72;4985750;27;103308;-82
2023/11/06 10:12:15;;;;;;;;;2.00;1.75;;;;;-143.90;69.03;74225.47;4982246;28;102627;-82
2023/11/06 10:14:42;;;;;;;;;2.00;0.00;;;;;-143.90;71.16;74250.25;4982004;27;103901;-83
2023/11/06 10:17:08;;;;;;;;;1.00;1.00;;;;;-143.90;71.61;74231.66;4979931;27;102254;-85
2023/11/06 10:19:35;;;;;;;;;1.75;1.00;;;;;-143.90;71.42;74198.59;4986407;28;102359;-82
2023/11/06 10:22:13;;;;;;;;;2.00;2.00;;;;;-143.90;69.58;74173.78;4985002;27;103262;-81
2023/11/06 10:24:53;;;;;;;;;1.50;1.00;;;;;-143.90;68.30;74180.00;4982110;27;103961;-85
2023/11/06 10:27:29;;;;;;;;;0.50;0.50;;;;;-143.90;68.07;74202.72;4975130;27;102147;-82
2023/11/06 10:30:04;;;;;;;;;1.00;1.00;;;;;-143.90;70.56;74200.66;4971000;27;101884;-83
2023/11/06 10:32:31;;;;;;;;;0.25;0.25;;;;;-143.90;69.73;74188.25;4987263;27;102140;-83
2023/11/06 10:35:10;;;;;;;;;2.75;1.00;;;;;-143.90;67.87;74173.78;4979357;28;105744;-84
2023/11/06 10:37:42;;;;;;;;;2.50;2.00;;;;;-143.90;71.71;74161.38;4979757;28;102332;-83
2023/11/06 10:40:13;;;;;;;;;4.75;4.00;;;;;-143.90;68.94;74171.72;4986279;28;102530;-83
2023/11/06 10:42:42;;;;;;;;;12.75;8.25;;;;;-143.90;68.16;74208.94;4988601;28;102194;-83
2023/11/06 10:45:18;;;;;;;;;0.75;0.75;;;;;-143.90;70.23;74242.00;4984302;28;105085;-84
2023/11/06 10:47:52;;;;;;;;;2.00;2.00;;;;;-143.90;70.68;74264.72;4984696;27;103520;-84
2023/11/06 10:50:22;;;;;;;;;1.00;1.00;;;;;-143.90;71.74;74273.00;4972266;27;102138;-81
2023/11/06 10:52:54;;;;;;;;;1.50;1.50;;;;;-143.90;72.09;74260.59;4990587;27;102313;-82
2023/11/06 10:55:25;;;;;;;;;1.00;0.25;;;;;-143.90;71.45;74266.81;4973099;27;108734;-85
2023/11/06 10:57:59;;;;;;;;;3.00;2.50;;;;;-143.90;70.95;74268.88;4987183;27;102683;-81
2023/11/06 11:00:26;;;;;;;;;18.00;14.25;;;;;-143.90;71.06;74270.94;4977318;27;102466;-82
2023/11/06 11:02:54;;;;;;;;;1.75;1.75;;;;;-143.90;71.99;74270.94;4985143;27;102230;-84
2023/11/06 11:05:24;;;;;;;;;1.50;1.00;;;;;-143.90;71.83;74270.94;4972880;28;108979;-83
2023/11/06 11:07:53;;;;;;;;;1.25;1.00;;;;;-143.90;71.71;74275.06;4981065;28;102279;-85
2023/11/06 11:10:26;;;;;;;;;3.00;2.00;;;;;-143.90;71.62;74287.47;4984755;27;102281;-82